Terminal Aerodrome Forecast
Issued by NWS Boston, MA

Home | Current Version | Previous Version | Text Only | Print | Product List | Glossary Off
Versions: 1 2 3 4 5 6 7 8 9 10 11 12 13 14 15 16 17 18 19 20 21 22 23 24 25 26 27 28 29 30 31 32 33 34 35 36 37 38 39 40 41 42 43 44
914 FTUS41 KBOX 230934 AAA TAFBDL TAF AMD KBDL 230934Z 2310/2412 02012KT P6SM OVC020 FM231300 04013G24KT P6SM -SHRADZ OVC015 FM232200 04017G35KT P6SM -SHRA OVC015 FM240300 03018G34KT 2SM RAPL BR OVC008 FM240600 04015G40KT 1 1/2SM -RAPL BR OVC010 FM241000 03015G35KT 2SM -RA BR OVC010 WS020/06040KT FM241100 03014G34KT 2SM -RA BR OVC010=

USA.gov is the U.S. government's official web portal to all federal, state and local government web resources and services.